sensor_id;sensor_type;location;lat;lon;timestamp;pressure;altitude;pressure_sealevel;temperature;humidity
39265;BME280;42646;51.910;7.724;2023-04-05T00:00:06;101863.53;;;1.95;81.01
39265;BME280;42646;51.910;7.724;2023-04-05T00:02:37;101856.81;;;1.88;79.95
39265;BME280;42646;51.910;7.724;2023-04-05T00:05:07;101862.25;;;1.82;79.22
39265;BME280;42646;51.910;7.724;2023-04-05T00:07:35;101859.06;;;1.74;78.38
39265;BME280;42646;51.910;7.724;2023-04-05T00:10:04;101859.25;;;1.68;77.77
39265;BME280;42646;51.910;7.724;2023-04-05T00:12:31;101852.47;;;1.62;77.66
39265;BME280;42646;51.910;7.724;2023-04-05T00:15:00;101850.91;;;1.56;77.55
39265;BME280;42646;51.910;7.724;2023-04-05T00:17:27;101852.81;;;1.51;77.55
39265;BME280;42646;51.910;7.724;2023-04-05T00:19:56;101845.22;;;1.44;77.72
39265;BME280;42646;51.910;7.724;2023-04-05T00:22:25;101842.72;;;1.39;78.38
39265;BME280;42646;51.910;7.724;2023-04-05T00:24:57;101842.88;;;1.34;79.20
39265;BME280;42646;51.910;7.724;2023-04-05T00:27:26;101850.94;;;1.28;79.39
39265;BME280;42646;51.910;7.724;2023-04-05T00:29:53;101853.69;;;1.24;80.42
39265;BME280;42646;51.910;7.724;2023-04-05T00:32:25;101845.09;;;1.20;81.50
39265;BME280;42646;51.910;7.724;2023-04-05T00:34:52;101837.31;;;1.17;82.51
39265;BME280;42646;51.910;7.724;2023-04-05T00:37:20;101847.00;;;1.15;83.68
39265;BME280;42646;51.910;7.724;2023-04-05T00:39:48;101849.75;;;1.11;84.36
39265;BME280;42646;51.910;7.724;2023-04-05T00:42:16;101842.03;;;1.06;84.36
39265;BME280;42646;51.910;7.724;2023-04-05T00:44:45;101837.84;;;1.00;83.79
39265;BME280;42646;51.910;7.724;2023-04-05T00:47:13;101834.53;;;0.95;83.29
39265;BME280;42646;51.910;7.724;2023-04-05T00:49:41;101826.81;;;0.91;83.95
39265;BME280;42646;51.910;7.724;2023-04-05T00:52:09;101834.75;;;0.89;84.42
39265;BME280;42646;51.910;7.724;2023-04-05T00:54:36;101828.72;;;0.86;85.22
39265;BME280;42646;51.910;7.724;2023-04-05T00:57:05;101837.56;;;0.82;85.33
39265;BME280;42646;51.910;7.724;2023-04-05T00:59:34;101834.22;;;0.76;84.90
39265;BME280;42646;51.910;7.724;2023-04-05T01:02:10;101830.91;;;0.71;83.89
39265;BME280;42646;51.910;7.724;2023-04-05T01:04:43;101835.47;;;0.65;82.92
39265;BME280;42646;51.910;7.724;2023-04-05T01:07:22;101836.47;;;0.61;82.10
39265;BME280;42646;51.910;7.724;2023-04-05T01:09:54;101834.88;;;0.55;81.40
39265;BME280;42646;51.910;7.724;2023-04-05T01:12:24;101835.81;;;0.52;81.02
39265;BME280;42646;51.910;7.724;2023-04-05T01:14:54;101833.31;;;0.49;80.81
39265;BME280;42646;51.910;7.724;2023-04-05T01:17:26;101834.28;;;0.45;80.75
39265;BME280;42646;51.910;7.724;2023-04-05T01:19:56;101833.50;;;0.43;81.18
39265;BME280;42646;51.910;7.724;2023-04-05T01:25:53;101827.59;;;0.35;83.44
39265;BME280;42646;51.910;7.724;2023-04-05T01:28:48;101823.38;;;0.31;84.46
39265;BME280;42646;51.910;7.724;2023-04-05T01:31:28;101809.50;;;0.28;85.00
39265;BME280;42646;51.910;7.724;2023-04-05T01:34:03;101806.16;;;0.24;85.78
39265;BME280;42646;51.910;7.724;2023-04-05T01:36:36;101803.66;;;0.19;86.66
39265;BME280;42646;51.910;7.724;2023-04-05T01:39:07;101809.81;;;0.17;87.08
39265;BME280;42646;51.910;7.724;2023-04-05T01:41:37;101806.34;;;0.16;87.45
39265;BME280;42646;51.910;7.724;2023-04-05T01:44:10;101801.22;;;0.13;87.96
39265;BME280;42646;51.910;7.724;2023-04-05T01:46:40;101803.91;;;0.10;88.37
39265;BME280;42646;51.910;7.724;2023-04-05T01:49:08;101801.38;;;0.07;88.26
39265;BME280;42646;51.910;7.724;2023-04-05T01:51:36;101800.59;;;0.04;88.09
39265;BME280;42646;51.910;7.724;2023-04-05T01:54:07;101798.94;;;0.01;88.18
39265;BME280;42646;51.910;7.724;2023-04-05T01:56:35;101796.41;;;-0.02;87.65
39265;BME280;42646;51.910;7.724;2023-04-05T01:59:03;101795.66;;;-0.07;87.68
39265;BME280;42646;51.910;7.724;2023-04-05T02:01:30;101790.53;;;-0.10;87.12
39265;BME280;42646;51.910;7.724;2023-04-05T02:04:00;101789.75;;;-0.14;86.31
39265;BME280;42646;51.910;7.724;2023-04-05T02:06:28;101792.47;;;-0.18;85.54
39265;BME280;42646;51.910;7.724;2023-04-05T02:09:00;101792.59;;;-0.21;84.97
39265;BME280;42646;51.910;7.724;2023-04-05T02:11:28;101787.41;;;-0.24;85.00
39265;BME280;42646;51.910;7.724;2023-04-05T02:13:57;101777.06;;;-0.28;85.01
39265;BME280;42646;51.910;7.724;2023-04-05T02:16:25;101780.56;;;-0.29;85.03
39265;BME280;42646;51.910;7.724;2023-04-05T02:18:54;101776.19;;;-0.28;85.07
39265;BME280;42646;51.910;7.724;2023-04-05T02:21:25;101788.44;;;-0.30;85.16
39265;BME280;42646;51.910;7.724;2023-04-05T02:23:53;101786.72;;;-0.31;85.18
39265;BME280;42646;51.910;7.724;2023-04-05T02:26:21;101781.59;;;-0.34;85.34
39265;BME280;42646;51.910;7.724;2023-04-05T02:28:48;101783.38;;;-0.36;85.28
39265;BME280;42646;51.910;7.724;2023-04-05T02:31:19;101780.81;;;-0.38;85.47
39265;BME280;42646;51.910;7.724;2023-04-05T02:33:48;101784.28;;;-0.37;85.72
39265;BME280;42646;51.910;7.724;2023-04-05T02:36:16;101795.69;;;-0.40;86.13
39265;BME280;42646;51.910;7.724;2023-04-05T02:38:45;101794.84;;;-0.40;86.04
39265;BME280;42646;51.910;7.724;2023-04-05T02:41:12;101800.06;;;-0.42;86.13
39265;BME280;42646;51.910;7.724;2023-04-05T02:43:43;101790.56;;;-0.44;86.40
39265;BME280;42646;51.910;7.724;2023-04-05T02:46:12;101778.41;;;-0.45;86.57
39265;BME280;42646;51.910;7.724;2023-04-05T02:48:41;101782.84;;;-0.47;86.82
39265;BME280;42646;51.910;7.724;2023-04-05T02:51:11;101780.22;;;-0.49;86.62
39265;BME280;42646;51.910;7.724;2023-04-05T02:53:41;101776.75;;;-0.49;87.48
39265;BME280;42646;51.910;7.724;2023-04-05T02:56:14;101774.09;;;-0.46;88.44
39265;BME280;42646;51.910;7.724;2023-04-05T02:58:45;101770.56;;;-0.45;89.19
39265;BME280;42646;51.910;7.724;2023-04-05T03:01:19;101776.69;;;-0.46;90.40
39265;BME280;42646;51.910;7.724;2023-04-05T03:03:48;101772.31;;;-0.46;90.64
39265;BME280;42646;51.910;7.724;2023-04-05T03:06:16;101775.78;;;-0.45;91.66
39265;BME280;42646;51.910;7.724;2023-04-05T03:08:47;101774.94;;;-0.46;92.26
39265;BME280;42646;51.910;7.724;2023-04-05T03:11:22;101763.69;;;-0.49;92.38
39265;BME280;42646;51.910;7.724;2023-04-05T03:13:55;101765.50;;;-0.51;92.15
39265;BME280;42646;51.910;7.724;2023-04-05T03:16:31;101755.97;;;-0.54;91.63
39265;BME280;42646;51.910;7.724;2023-04-05T03:19:08;101759.47;;;-0.55;91.84
39265;BME280;42646;51.910;7.724;2023-04-05T03:21:40;101756.03;;;-0.56;91.75
39265;BME280;42646;51.910;7.724;2023-04-05T03:24:21;101756.97;;;-0.58;91.75
39265;BME280;42646;51.910;7.724;2023-04-05T03:26:53;101763.13;;;-0.61;91.56
39265;BME280;42646;51.910;7.724;2023-04-05T03:29:24;101764.13;;;-0.65;91.04
39265;BME280;42646;51.910;7.724;2023-04-05T03:31:53;101770.25;;;-0.67;90.47
39265;BME280;42646;51.910;7.724;2023-04-05T03:34:23;101765.94;;;-0.68;90.23
39265;BME280;42646;51.910;7.724;2023-04-05T03:37:00;101768.59;;;-0.70;89.74
39265;BME280;42646;51.910;7.724;2023-04-05T03:39:43;101767.75;;;-0.70;90.09
39265;BME280;42646;51.910;7.724;2023-04-05T03:42:12;101771.22;;;-0.71;90.06
39265;BME280;42646;51.910;7.724;2023-04-05T03:44:43;101771.22;;;-0.71;90.20
39265;BME280;42646;51.910;7.724;2023-04-05T03:47:37;101764.38;;;-0.75;90.23
39265;BME280;42646;51.910;7.724;2023-04-05T03:50:30;101769.66;;;-0.78;90.54
39265;BME280;42646;51.910;7.724;2023-04-05T03:52:57;101767.97;;;-0.79;90.17
39265;BME280;42646;51.910;7.724;2023-04-05T03:55:26;101769.75;;;-0.82;90.44
39265;BME280;42646;51.910;7.724;2023-04-05T03:57:56;101760.22;;;-0.83;90.13
39265;BME280;42646;51.910;7.724;2023-04-05T04:00:31;101763.69;;;-0.84;89.90
39265;BME280;42646;51.910;7.724;2023-04-05T04:03:19;101763.78;;;-0.87;89.84
39265;BME280;42646;51.910;7.724;2023-04-05T04:05:50;101762.94;;;-0.87;89.80
39265;BME280;42646;51.910;7.724;2023-04-05T04:08:19;101762.97;;;-0.89;89.77
39265;BME280;42646;51.910;7.724;2023-04-05T04:10:47;101762.09;;;-0.89;89.66
39265;BME280;42646;51.910;7.724;2023-04-05T04:13:22;101757.78;;;-0.90;90.03
39265;BME280;42646;51.910;7.724;2023-04-05T04:15:59;101756.88;;;-0.89;90.44
39265;BME280;42646;51.910;7.724;2023-04-05T04:18:52;101754.31;;;-0.91;90.98
39265;BME280;42646;51.910;7.724;2023-04-05T04:21:41;101749.13;;;-0.92;91.29
39265;BME280;42646;51.910;7.724;2023-04-05T04:24:32;101752.69;;;-0.95;91.67
39265;BME280;42646;51.910;7.724;2023-04-05T04:27:08;101751.84;;;-0.97;91.77
39265;BME280;42646;51.910;7.724;2023-04-05T04:30:11;101757.97;;;-0.98;91.53
39265;BME280;42646;51.910;7.724;2023-04-05T04:32:48;101758.91;;;-1.00;91.53
39265;BME280;42646;51.910;7.724;2023-04-05T04:35:43;101752.91;;;-1.04;91.54
39265;BME280;42646;51.910;7.724;2023-04-05T04:38:40;101752.09;;;-1.06;91.25
39265;BME280;42646;51.910;7.724;2023-04-05T04:41:28;101758.16;;;-1.05;91.35
39265;BME280;42646;51.910;7.724;2023-04-05T04:44:07;101755.50;;;-1.04;91.48
39265;BME280;42646;51.910;7.724;2023-04-05T04:47:01;101752.91;;;-1.04;92.10
39265;BME280;42646;51.910;7.724;2023-04-05T04:49:44;101749.47;;;-1.06;92.68
39265;BME280;42646;51.910;7.724;2023-04-05T04:52:11;101748.59;;;-1.05;93.40
39265;BME280;42646;51.910;7.724;2023-04-05T04:54:41;101752.03;;;-1.04;94.03
39265;BME280;42646;51.910;7.724;2023-04-05T04:57:08;101745.06;;;-1.04;94.15
39265;BME280;42646;51.910;7.724;2023-04-05T04:59:36;101752.03;;;-1.04;94.56
39265;BME280;42646;51.910;7.724;2023-04-05T05:02:07;101747.72;;;-1.05;94.94
39265;BME280;42646;51.910;7.724;2023-04-05T05:04:38;101743.41;;;-1.08;95.04
39265;BME280;42646;51.910;7.724;2023-04-05T05:07:06;101743.50;;;-1.11;94.80
39265;BME280;42646;51.910;7.724;2023-04-05T05:09:37;101747.03;;;-1.12;94.85
39265;BME280;42646;51.910;7.724;2023-04-05T05:12:04;101747.94;;;-1.15;94.48
39265;BME280;42646;51.910;7.724;2023-04-05T05:14:32;101752.34;;;-1.17;94.33
39265;BME280;42646;51.910;7.724;2023-04-05T05:17:02;101748.84;;;-1.16;94.19
39265;BME280;42646;51.910;7.724;2023-04-05T05:19:31;101747.94;;;-1.15;94.40
39265;BME280;42646;51.910;7.724;2023-04-05T05:22:00;101750.53;;;-1.15;95.12
39265;BME280;42646;51.910;7.724;2023-04-05T05:24:29;101754.06;;;-1.16;95.36
39265;BME280;42646;51.910;7.724;2023-04-05T05:26:57;101751.44;;;-1.16;95.53
39265;BME280;42646;51.910;7.724;2023-04-05T05:29:25;101741.03;;;-1.17;95.55
39265;BME280;42646;51.910;7.724;2023-04-05T05:31:52;101747.13;;;-1.17;95.85
39265;BME280;42646;51.910;7.724;2023-04-05T05:34:20;101747.88;;;-1.13;95.89
39265;BME280;42646;51.910;7.724;2023-04-05T05:36:53;101749.63;;;-1.12;96.21
39265;BME280;42646;51.910;7.724;2023-04-05T05:39:21;101749.59;;;-1.11;96.32
39265;BME280;42646;51.910;7.724;2023-04-05T05:41:52;101748.72;;;-1.11;96.72
39265;BME280;42646;51.910;7.724;2023-04-05T05:44:19;101753.94;;;-1.11;96.81
39265;BME280;42646;51.910;7.724;2023-04-05T05:46:49;101753.09;;;-1.12;96.71
39265;BME280;42646;51.910;7.724;2023-04-05T05:49:18;101750.50;;;-1.13;96.91
39265;BME280;42646;51.910;7.724;2023-04-05T05:51:46;101760.94;;;-1.13;96.36
39265;BME280;42646;51.910;7.724;2023-04-05T05:54:15;101752.31;;;-1.15;96.11
39265;BME280;42646;51.910;7.724;2023-04-05T05:56:43;101760.94;;;-1.13;95.84
39265;BME280;42646;51.910;7.724;2023-04-05T05:59:11;101754.00;;;-1.13;95.74
39265;BME280;42646;51.910;7.724;2023-04-05T06:01:40;101750.50;;;-1.13;95.71
39265;BME280;42646;51.910;7.724;2023-04-05T06:04:08;101747.84;;;-1.10;95.60
39265;BME280;42646;51.910;7.724;2023-04-05T06:06:38;101743.41;;;-1.08;95.40
39265;BME280;42646;51.910;7.724;2023-04-05T06:09:08;101752.09;;;-1.06;95.43
39265;BME280;42646;51.910;7.724;2023-04-05T06:11:37;101753.75;;;-1.03;95.16
39265;BME280;42646;51.910;7.724;2023-04-05T06:14:21;101752.81;;;-1.01;95.46
39265;BME280;42646;51.910;7.724;2023-04-05T06:16:48;101751.84;;;-0.97;95.17
39265;BME280;42646;51.910;7.724;2023-04-05T06:19:40;101753.56;;;-0.96;95.10
39265;BME280;42646;51.910;7.724;2023-04-05T06:22:10;101751.66;;;-0.89;94.60
39265;BME280;42646;51.910;7.724;2023-04-05T06:24:37;101739.38;;;-0.86;94.51
39265;BME280;42646;51.910;7.724;2023-04-05T06:27:06;101744.41;;;-0.78;94.36
39265;BME280;42646;51.910;7.724;2023-04-05T06:29:38;101746.00;;;-0.72;94.28
39265;BME280;42646;51.910;7.724;2023-04-05T06:32:06;101742.25;;;-0.62;94.29
39265;BME280;42646;51.910;7.724;2023-04-05T06:34:33;101741.19;;;-0.55;94.21
39265;BME280;42646;51.910;7.724;2023-04-05T06:37:01;101748.75;;;-0.44;94.44
39265;BME280;42646;51.910;7.724;2023-04-05T06:39:29;101749.22;;;-0.30;94.98
39265;BME280;42646;51.910;7.724;2023-04-05T06:41:57;101752.16;;;-0.10;93.91
39265;BME280;42646;51.910;7.724;2023-04-05T06:44:32;101746.53;;;0.04;93.26
39265;BME280;42646;51.910;7.724;2023-04-05T06:47:00;101747.88;;;0.17;93.18
39265;BME280;42646;51.910;7.724;2023-04-05T06:49:30;101750.13;;;0.30;92.36
39265;BME280;42646;51.910;7.724;2023-04-05T06:51:59;101751.50;;;0.43;92.02
39265;BME280;42646;51.910;7.724;2023-04-05T06:54:29;101749.41;;;0.54;91.23
39265;BME280;42646;51.910;7.724;2023-04-05T06:56:56;101746.41;;;0.66;90.10
39265;BME280;42646;51.910;7.724;2023-04-05T06:59:27;101744.19;;;0.80;88.99
39265;BME280;42646;51.910;7.724;2023-04-05T07:01:57;101739.59;;;0.87;88.32
39265;BME280;42646;51.910;7.724;2023-04-05T07:04:25;101746.91;;;1.04;86.50
39265;BME280;42646;51.910;7.724;2023-04-05T07:06:56;101749.03;;;1.19;84.92
39265;BME280;42646;51.910;7.724;2023-04-05T07:09:24;101742.56;;;1.29;84.55
39265;BME280;42646;51.910;7.724;2023-04-05T07:11:54;101736.09;;;1.40;84.44
39265;BME280;42646;51.910;7.724;2023-04-05T07:14:22;101738.41;;;1.49;84.26
39265;BME280;42646;51.910;7.724;2023-04-05T07:16:51;101738.00;;;1.59;83.74
39265;BME280;42646;51.910;7.724;2023-04-05T07:19:20;101736.00;;;1.68;83.33
39265;BME280;42646;51.910;7.724;2023-04-05T07:21:48;101734.84;;;1.75;83.29
39265;BME280;42646;51.910;7.724;2023-04-05T07:24:15;101731.03;;;1.83;83.05
39265;BME280;42646;51.910;7.724;2023-04-05T07:26:44;101728.94;;;1.93;82.66
39265;BME280;42646;51.910;7.724;2023-04-05T07:29:11;101721.59;;;2.03;82.31
39265;BME280;42646;51.910;7.724;2023-04-05T07:31:40;101729.53;;;2.23;82.69
39265;BME280;42646;51.910;7.724;2023-04-05T07:34:08;101734.16;;;2.62;83.47
39265;BME280;42646;51.910;7.724;2023-04-05T07:36:37;101722.28;;;2.95;81.30
39265;BME280;42646;51.910;7.724;2023-04-05T07:39:08;101720.94;;;3.28;80.39
39265;BME280;42646;51.910;7.724;2023-04-05T07:41:35;101712.50;;;3.60;79.70
39265;BME280;42646;51.910;7.724;2023-04-05T07:44:03;101717.38;;;3.88;78.05
39265;BME280;42646;51.910;7.724;2023-04-05T07:46:31;101712.38;;;4.21;77.01
39265;BME280;42646;51.910;7.724;2023-04-05T07:48:59;101716.22;;;4.33;76.50
39265;BME280;42646;51.910;7.724;2023-04-05T07:51:26;101718.09;;;4.48;76.56
39265;BME280;42646;51.910;7.724;2023-04-05T07:53:55;101713.88;;;4.63;75.80
39265;BME280;42646;51.910;7.724;2023-04-05T07:56:27;101717.31;;;4.82;74.89
39265;BME280;42646;51.910;7.724;2023-04-05T07:58:56;101708.94;;;4.92;74.07
39265;BME280;42646;51.910;7.724;2023-04-05T08:01:26;101710.13;;;5.03;74.13
39265;BME280;42646;51.910;7.724;2023-04-05T08:03:53;101705.97;;;5.17;73.23
39265;BME280;42646;51.910;7.724;2023-04-05T08:06:22;101712.13;;;5.33;72.76
39265;BME280;42646;51.910;7.724;2023-04-05T08:08:53;101717.69;;;5.61;71.54
39265;BME280;42646;51.910;7.724;2023-04-05T08:11:22;101714.78;;;5.83;71.03
39265;BME280;42646;51.910;7.724;2023-04-05T08:13:49;101714.59;;;6.04;70.17
39265;BME280;42646;51.910;7.724;2023-04-05T08:16:19;101703.19;;;6.19;69.37
39265;BME280;42646;51.910;7.724;2023-04-05T08:18:46;101711.03;;;6.36;67.94
39265;BME280;42646;51.910;7.724;2023-04-05T08:21:14;101705.41;;;6.58;66.95
39265;BME280;42646;51.910;7.724;2023-04-05T08:23:43;101700.41;;;6.84;65.90
39265;BME280;42646;51.910;7.724;2023-04-05T08:26:11;101687.91;;;7.02;65.47
39265;BME280;42646;51.910;7.724;2023-04-05T08:28:41;101686.91;;;7.18;65.14
39265;BME280;42646;51.910;7.724;2023-04-05T08:31:09;101695.72;;;7.33;64.13
39265;BME280;42646;51.910;7.724;2023-04-05T08:33:39;101686.41;;;7.42;64.68
39265;BME280;42646;51.910;7.724;2023-04-05T08:36:08;101695.94;;;7.59;63.28
39265;BME280;42646;51.910;7.724;2023-04-05T08:38:36;101691.69;;;7.70;62.62
39265;BME280;42646;51.910;7.724;2023-04-05T08:41:10;101688.78;;;7.89;61.61
39265;BME280;42646;51.910;7.724;2023-04-05T08:43:55;101693.66;;;8.10;60.45
39265;BME280;42646;51.910;7.724;2023-04-05T08:46:24;101691.69;;;8.13;61.30
39265;BME280;42646;51.910;7.724;2023-04-05T08:48:53;101693.84;;;8.21;61.40
39265;BME280;42646;51.910;7.724;2023-04-05T08:51:22;101698.34;;;8.33;60.73
39265;BME280;42646;51.910;7.724;2023-04-05T08:53:52;101694.75;;;8.48;59.01
39265;BME280;42646;51.910;7.724;2023-04-05T08:56:24;101684.28;;;8.60;58.51
39265;BME280;42646;51.910;7.724;2023-04-05T08:59:18;101682.72;;;8.70;57.11
39265;BME280;42646;51.910;7.724;2023-04-05T09:01:48;101685.19;;;8.73;57.36
39265;BME280;42646;51.910;7.724;2023-04-05T09:04:20;101683.19;;;8.76;57.72
39265;BME280;42646;51.910;7.724;2023-04-05T09:06:50;101686.19;;;8.85;57.43
39265;BME280;42646;51.910;7.724;2023-04-05T09:09:19;101690.69;;;8.97;54.85
39265;BME280;42646;51.910;7.724;2023-04-05T09:11:47;101688.47;;;9.03;54.26
39265;BME280;42646;51.910;7.724;2023-04-05T09:14:19;101696.88;;;9.10;53.84
39265;BME280;42646;51.910;7.724;2023-04-05T09:16:48;101692.97;;;9.28;53.83
39265;BME280;42646;51.910;7.724;2023-04-05T09:19:15;101691.47;;;9.24;52.82
39265;BME280;42646;51.910;7.724;2023-04-05T09:22:10;101684.53;;;9.09;52.94
39265;BME280;42646;51.910;7.724;2023-04-05T09:24:40;101686.97;;;9.12;52.92
39265;BME280;42646;51.910;7.724;2023-04-05T09:27:10;101684.25;;;9.14;52.81
39265;BME280;42646;51.910;7.724;2023-04-05T09:29:41;101677.66;;;9.19;52.90
39265;BME280;42646;51.910;7.724;2023-04-05T09:32:10;101680.00;;;9.24;51.33
39265;BME280;42646;51.910;7.724;2023-04-05T09:34:39;101675.44;;;9.26;51.42
39265;BME280;42646;51.910;7.724;2023-04-05T09:37:16;101669.72;;;9.19;52.09
39265;BME280;42646;51.910;7.724;2023-04-05T09:40:12;101674.59;;;9.25;52.56
39265;BME280;42646;51.910;7.724;2023-04-05T09:42:43;101677.56;;;9.33;52.01
39265;BME280;42646;51.910;7.724;2023-04-05T09:45:15;101672.38;;;9.32;50.66
39265;BME280;42646;51.910;7.724;2023-04-05T09:47:53;101671.59;;;9.30;51.00
39265;BME280;42646;51.910;7.724;2023-04-05T09:50:22;101672.91;;;9.37;51.59
39265;BME280;42646;51.910;7.724;2023-04-05T09:53:04;101671.19;;;9.23;50.89
39265;BME280;42646;51.910;7.724;2023-04-05T09:55:32;101663.22;;;9.23;51.53
39265;BME280;42646;51.910;7.724;2023-04-05T09:58:00;101660.25;;;9.28;52.83
39265;BME280;42646;51.910;7.724;2023-04-05T10:00:29;101661.44;;;9.49;50.72
39265;BME280;42646;51.910;7.724;2023-04-05T10:02:57;101666.81;;;9.48;48.33
39265;BME280;42646;51.910;7.724;2023-04-05T10:05:27;101666.22;;;9.31;48.75
39265;BME280;42646;51.910;7.724;2023-04-05T10:07:55;101662.91;;;9.28;48.67
39265;BME280;42646;51.910;7.724;2023-04-05T10:10:23;101665.78;;;9.38;49.51
39265;BME280;42646;51.910;7.724;2023-04-05T10:12:52;101655.34;;;9.34;48.59
39265;BME280;42646;51.910;7.724;2023-04-05T10:15:22;101653.25;;;9.40;48.76
39265;BME280;42646;51.910;7.724;2023-04-05T10:18:02;101668.13;;;9.55;49.92
39265;BME280;42646;51.910;7.724;2023-04-05T10:20:32;101652.69;;;9.73;48.70
39265;BME280;42646;51.910;7.724;2023-04-05T10:23:04;101656.28;;;9.72;46.66
39265;BME280;42646;51.910;7.724;2023-04-05T10:25:49;101645.03;;;9.43;48.63
39265;BME280;42646;51.910;7.724;2023-04-05T10:28:25;101647.31;;;9.49;48.44
39265;BME280;42646;51.910;7.724;2023-04-05T10:31:01;101631.69;;;9.44;49.06
39265;BME280;42646;51.910;7.724;2023-04-05T10:33:39;101643.88;;;9.47;49.57
39265;BME280;42646;51.910;7.724;2023-04-05T10:36:16;101642.06;;;9.60;49.88
39265;BME280;42646;51.910;7.724;2023-04-05T10:38:57;101634.44;;;9.55;48.99
39265;BME280;42646;51.910;7.724;2023-04-05T10:41:29;101643.78;;;9.74;47.61
39265;BME280;42646;51.910;7.724;2023-04-05T10:44:01;101644.28;;;9.66;46.63
39265;BME280;42646;51.910;7.724;2023-04-05T10:46:49;101643.88;;;9.47;47.09
39265;BME280;42646;51.910;7.724;2023-04-05T10:49:21;101634.78;;;9.25;46.67
39265;BME280;42646;51.910;7.724;2023-04-05T10:51:54;101631.22;;;9.25;47.05
39265;BME280;42646;51.910;7.724;2023-04-05T10:54:22;101630.63;;;9.21;48.05
39265;BME280;42646;51.910;7.724;2023-04-05T10:56:50;101634.44;;;9.30;48.28
39265;BME280;42646;51.910;7.724;2023-04-05T10:59:19;101628.69;;;9.36;46.89
39265;BME280;42646;51.910;7.724;2023-04-05T11:01:47;101622.53;;;9.35;45.72
39265;BME280;42646;51.910;7.724;2023-04-05T11:04:16;101617.22;;;9.35;45.96
39265;BME280;42646;51.910;7.724;2023-04-05T11:06:45;101615.41;;;9.36;45.80
39265;BME280;42646;51.910;7.724;2023-04-05T11:09:17;101614.69;;;9.34;45.85
39265;BME280;42646;51.910;7.724;2023-04-05T11:11:48;101621.56;;;9.36;45.50
39265;BME280;42646;51.910;7.724;2023-04-05T11:14:18;101612.16;;;9.32;47.00
39265;BME280;42646;51.910;7.724;2023-04-05T11:16:47;101611.06;;;9.35;48.20
39265;BME280;42646;51.910;7.724;2023-04-05T11:19:16;101615.34;;;9.38;46.50
39265;BME280;42646;51.910;7.724;2023-04-05T11:21:45;101609.47;;;9.32;46.80
39265;BME280;42646;51.910;7.724;2023-04-05T11:24:13;101605.97;;;9.32;45.58
39265;BME280;42646;51.910;7.724;2023-04-05T11:26:55;101612.16;;;9.20;44.74
39265;BME280;42646;51.910;7.724;2023-04-05T11:29:46;101607.03;;;9.29;43.94
39265;BME280;42646;51.910;7.724;2023-04-05T11:32:16;101606.72;;;9.21;44.84
39265;BME280;42646;51.910;7.724;2023-04-05T11:34:57;101605.03;;;9.20;45.81
39265;BME280;42646;51.910;7.724;2023-04-05T11:38:05;101591.84;;;9.19;46.10
39265;BME280;42646;51.910;7.724;2023-04-05T11:40:35;101590.38;;;9.15;45.02
39265;BME280;42646;51.910;7.724;2023-04-05T11:43:05;101589.72;;;9.11;46.10
39265;BME280;42646;51.910;7.724;2023-04-05T11:45:34;101582.41;;;9.15;47.28
39265;BME280;42646;51.910;7.724;2023-04-05T11:48:06;101582.94;;;9.20;47.02
39265;BME280;42646;51.910;7.724;2023-04-05T11:50:35;101579.84;;;9.26;46.99
39265;BME280;42646;51.910;7.724;2023-04-05T11:53:11;101579.94;;;9.24;47.08
39265;BME280;42646;51.910;7.724;2023-04-05T11:55:41;101579.22;;;9.22;47.15
39265;BME280;42646;51.910;7.724;2023-04-05T11:58:11;101571.97;;;9.24;47.23
39265;BME280;42646;51.910;7.724;2023-04-05T12:00:40;101572.63;;;9.28;46.83
39265;BME280;42646;51.910;7.724;2023-04-05T12:03:10;101569.78;;;9.31;47.32
39265;BME280;42646;51.910;7.724;2023-04-05T12:05:46;101563.69;;;9.42;47.67
39265;BME280;42646;51.910;7.724;2023-04-05T12:08:16;101564.75;;;9.39;47.51
39265;BME280;42646;51.910;7.724;2023-04-05T12:10:52;101559.22;;;9.42;46.85
39265;BME280;42646;51.910;7.724;2023-04-05T12:13:27;101554.53;;;9.46;46.31
39265;BME280;42646;51.910;7.724;2023-04-05T12:15:58;101564.09;;;9.61;46.36
39265;BME280;42646;51.910;7.724;2023-04-05T12:18:29;101558.22;;;9.69;46.62
39265;BME280;42646;51.910;7.724;2023-04-05T12:20:58;101558.34;;;9.67;45.71
39265;BME280;42646;51.910;7.724;2023-04-05T12:23:28;101559.59;;;9.74;45.99
39265;BME280;42646;51.910;7.724;2023-04-05T12:25:56;101548.50;;;9.80;45.96
39265;BME280;42646;51.910;7.724;2023-04-05T12:28:50;101557.53;;;9.90;45.85
39265;BME280;42646;51.910;7.724;2023-04-05T12:31:36;101542.63;;;9.88;45.87
39265;BME280;42646;51.910;7.724;2023-04-05T12:34:28;101544.84;;;9.94;45.70
39265;BME280;42646;51.910;7.724;2023-04-05T12:36:59;101543.88;;;9.95;45.07
39265;BME280;42646;51.910;7.724;2023-04-05T12:39:31;101541.34;;;9.94;44.97
39265;BME280;42646;51.910;7.724;2023-04-05T12:42:01;101538.34;;;9.98;45.08
39265;BME280;42646;51.910;7.724;2023-04-05T12:44:30;101539.59;;;10.05;43.78
39265;BME280;42646;51.910;7.724;2023-04-05T12:46:59;101537.63;;;9.96;44.66
39265;BME280;42646;51.910;7.724;2023-04-05T12:49:35;101534.59;;;10.01;44.62
39265;BME280;42646;51.910;7.724;2023-04-05T12:52:04;101533.88;;;9.99;44.80
39265;BME280;42646;51.910;7.724;2023-04-05T12:54:33;101520.13;;;10.05;44.14
39265;BME280;42646;51.910;7.724;2023-04-05T12:57:01;101529.28;;;10.01;44.35
39265;BME280;42646;51.910;7.724;2023-04-05T12:59:29;101510.59;;;10.02;44.68
39265;BME280;42646;51.910;7.724;2023-04-05T13:01:57;101509.25;;;10.08;44.27
39265;BME280;42646;51.910;7.724;2023-04-05T13:04:26;101516.03;;;10.12;44.08
39265;BME280;42646;51.910;7.724;2023-04-05T13:06:53;101514.63;;;10.19;43.63
39265;BME280;42646;51.910;7.724;2023-04-05T13:09:21;101504.31;;;10.27;43.68
39265;BME280;42646;51.910;7.724;2023-04-05T13:11:50;101498.25;;;10.25;43.68
39265;BME280;42646;51.910;7.724;2023-04-05T13:14:18;101494.06;;;10.34;43.10
39265;BME280;42646;51.910;7.724;2023-04-05T13:16:45;101504.31;;;10.27;43.24
39265;BME280;42646;51.910;7.724;2023-04-05T13:19:14;101503.00;;;10.33;43.14
39265;BME280;42646;51.910;7.724;2023-04-05T13:21:42;101499.03;;;10.38;41.87